Fishs Eddy, New York
Current Conditions -  °F | °C
As of 10:35 AM on Thursday 23 Oct 2014 (Local Time) from KMSV Reporting Station
Overcast Overcast  
Wind Chill: 41°   Ceiling: 1400
Heat Index: 46°   Visibility: 10mi
Dew Point: 45°   Wind: 13mph
Humidity: 93%   Direction: 340°NNW
Pressure: 29.8"   Gusts: NA
Location:  41.96°N, 75.18°W
Report Text: KMSV 231435Z AUTO 34011KT 10SM OVC014 08/07 A2980 RMK AO1
Loading
Personal Weather Stations






























Interactive Weather Map
Tropical Storm Tracking
New forecast layout! Learn more

10-Day Weather Forecast

Advertisements
Track Severe Weather on mobile